createdAt,value
2022-10-13T00:00:05.550Z,77.74
2022-10-13T00:02:32.103Z,77.58
2022-10-13T00:05:00.923Z,77.86
2022-10-13T00:07:27.726Z,77.49
2022-10-13T00:09:54.591Z,78.09
2022-10-13T00:12:21.981Z,78.16
2022-10-13T00:14:48.628Z,78.17
2022-10-13T00:17:17.480Z,78.20
2022-10-13T00:19:44.051Z,78.45
2022-10-13T00:22:13.103Z,78.60
2022-10-13T00:24:42.131Z,78.73
2022-10-13T00:27:08.902Z,78.37
2022-10-13T00:29:35.702Z,78.49
2022-10-13T00:32:04.490Z,78.57
2022-10-13T00:34:31.995Z,78.46
2022-10-13T00:36:59.037Z,78.68
2022-10-13T00:39:28.870Z,78.78
2022-10-13T00:41:58.751Z,78.87
2022-10-13T00:45:03.098Z,78.90
2022-10-13T00:47:42.109Z,79.08
2022-10-13T00:50:13.403Z,78.81
2022-10-13T00:52:42.067Z,79.13
2022-10-13T00:55:13.673Z,78.83
2022-10-13T00:57:47.388Z,79.08
2022-10-13T01:00:14.730Z,79.29
2022-10-13T01:02:41.435Z,79.27
2022-10-13T01:05:08.622Z,79.56
2022-10-13T01:07:37.876Z,79.35
2022-10-13T01:10:05.012Z,79.43
2022-10-13T01:12:46.969Z,79.57
2022-10-13T01:15:21.750Z,79.51
2022-10-13T01:18:06.879Z,79.63
2022-10-13T01:20:36.240Z,79.79
2022-10-13T01:23:40.326Z,79.86
2022-10-13T01:26:28.391Z,79.77
2022-10-13T01:29:21.047Z,79.75
2022-10-13T01:32:22.619Z,79.89
2022-10-13T01:35:01.610Z,79.70
2022-10-13T01:37:55.950Z,79.79
2022-10-13T01:40:36.628Z,79.99
2022-10-13T01:43:10.594Z,80.11
2022-10-13T01:45:44.904Z,80.15
2022-10-13T01:48:11.812Z,80.06
2022-10-13T01:50:39.505Z,79.98
2022-10-13T01:53:07.495Z,80.21
2022-10-13T01:55:34.389Z,80.34
2022-10-13T01:58:00.979Z,80.32
2022-10-13T02:00:39.754Z,80.37
2022-10-13T02:03:44.957Z,79.98
2022-10-13T02:06:14.678Z,80.17
2022-10-13T02:08:58.348Z,80.27
2022-10-13T02:11:25.522Z,80.45
2022-10-13T02:14:18.473Z,80.40
2022-10-13T02:16:50.798Z,80.33
2022-10-13T02:19:18.932Z,80.21
2022-10-13T02:21:47.031Z,80.31
2022-10-13T02:24:14.008Z,80.51
2022-10-13T02:26:41.940Z,80.51
2022-10-13T02:29:13.131Z,80.81
2022-10-13T02:31:41.168Z,80.66
2022-10-13T02:34:07.870Z,80.56
2022-10-13T02:36:35.173Z,80.62
2022-10-13T02:39:02.016Z,81.08
2022-10-13T02:41:31.279Z,80.90
2022-10-13T02:44:00.369Z,80.72
2022-10-13T02:46:27.079Z,80.62
2022-10-13T02:48:54.653Z,80.81
2022-10-13T02:51:21.308Z,80.84
2022-10-13T02:53:47.929Z,80.84
2022-10-13T02:56:14.638Z,80.95
2022-10-13T02:58:41.275Z,80.94
2022-10-13T03:01:15.602Z,81.02
2022-10-13T03:03:42.399Z,81.00
2022-10-13T03:06:09.162Z,80.89
2022-10-13T03:08:36.286Z,81.09
2022-10-13T03:11:02.973Z,81.19
2022-10-13T03:13:32.063Z,81.13
2022-10-13T03:16:01.073Z,81.34
2022-10-13T03:18:27.860Z,81.19
2022-10-13T03:20:59.807Z,81.47
2022-10-13T03:23:29.079Z,81.42
2022-10-13T03:25:57.389Z,81.75
2022-10-13T03:28:24.051Z,81.52
2022-10-13T03:30:50.701Z,81.60
2022-10-13T03:33:17.382Z,81.60
2022-10-13T03:35:43.940Z,81.52
2022-10-13T03:38:13.157Z,81.55
2022-10-13T03:40:40.070Z,81.67
2022-10-13T03:43:06.614Z,81.78
2022-10-13T03:45:33.229Z,81.67
2022-10-13T03:48:02.261Z,81.63
2022-10-13T03:50:31.047Z,81.52
2022-10-13T03:52:58.181Z,81.79
2022-10-13T03:55:24.828Z,81.82
2022-10-13T03:57:51.469Z,81.53
2022-10-13T04:00:20.379Z,81.51
2022-10-13T04:02:49.557Z,81.80
2022-10-13T04:05:16.240Z,81.49
2022-10-13T04:07:42.997Z,81.88
2022-10-13T04:10:11.538Z,81.87
2022-10-13T04:12:38.368Z,81.68
2022-10-13T04:15:07.821Z,82.11
2022-10-13T04:17:34.419Z,82.18
2022-10-13T04:20:01.133Z,81.98
2022-10-13T04:22:27.880Z,82.01
2022-10-13T04:24:54.430Z,82.04
2022-10-13T04:27:23.583Z,82.06
2022-10-13T04:29:50.333Z,82.23
2022-10-13T04:32:19.491Z,82.22
2022-10-13T04:34:46.304Z,82.40
2022-10-13T04:37:15.659Z,82.45
2022-10-13T04:39:42.541Z,82.43
2022-10-13T04:42:11.283Z,82.38
2022-10-13T04:44:37.921Z,82.36
2022-10-13T04:47:04.710Z,82.57
2022-10-13T04:49:31.409Z,82.50
2022-10-13T04:51:58.205Z,82.24
2022-10-13T04:54:27.125Z,82.54
2022-10-13T04:56:56.491Z,82.92
2022-10-13T04:59:25.281Z,82.80
2022-10-13T05:01:54.414Z,82.73
2022-10-13T05:04:20.953Z,82.40
2022-10-13T05:07:16.422Z,82.92
2022-10-13T05:09:34.343Z,82.81
2022-10-13T05:12:03.426Z,82.75
2022-10-13T05:14:31.721Z,82.89
2022-10-13T05:16:58.367Z,83.03
2022-10-13T05:19:24.945Z,82.98
2022-10-13T05:21:51.537Z,82.84
2022-10-13T05:24:18.193Z,82.85
2022-10-13T05:26:44.850Z,82.89
2022-10-13T05:29:11.598Z,83.01
2022-10-13T05:31:40.589Z,82.91
2022-10-13T05:34:07.222Z,83.11
2022-10-13T05:36:36.891Z,83.07
2022-10-13T05:39:05.519Z,82.94
2022-10-13T05:41:35.179Z,82.94
2022-10-13T05:44:04.813Z,83.28
2022-10-13T05:46:31.605Z,82.98
2022-10-13T05:49:00.813Z,83.08
2022-10-13T05:51:32.310Z,83.16
2022-10-13T05:54:08.937Z,83.33
2022-10-13T05:56:41.637Z,83.07
2022-10-13T05:59:12.628Z,82.99
2022-10-13T06:01:42.812Z,83.30
2022-10-13T06:04:25.751Z,83.06
2022-10-13T06:06:53.024Z,83.20
2022-10-13T06:09:19.907Z,83.23
2022-10-13T06:11:46.566Z,83.10
2022-10-13T06:14:15.717Z,83.23
2022-10-13T06:16:42.356Z,83.23
2022-10-13T06:19:09.026Z,83.05
2022-10-13T06:21:35.844Z,82.94
2022-10-13T06:24:05.170Z,83.02
2022-10-13T06:26:32.841Z,83.06
2022-10-13T06:29:00.380Z,83.12
2022-10-13T06:31:29.816Z,83.03
2022-10-13T06:33:56.642Z,83.13
2022-10-13T06:36:24.206Z,82.86
2022-10-13T06:38:51.573Z,82.89
2022-10-13T06:41:18.670Z,82.96
2022-10-13T06:43:45.259Z,82.86
2022-10-13T06:46:12.578Z,82.79
2022-10-13T06:48:39.929Z,82.85
2022-10-13T06:51:09.893Z,82.81
2022-10-13T06:53:37.559Z,82.48
2022-10-13T06:56:06.746Z,82.93
2022-10-13T06:58:35.431Z,82.77
2022-10-13T07:01:02.442Z,82.82
2022-10-13T07:03:29.628Z,83.02
2022-10-13T07:06:06.586Z,83.12
2022-10-13T07:08:36.663Z,82.73
2022-10-13T07:11:12.946Z,82.76
2022-10-13T07:13:46.165Z,82.48
2022-10-13T07:16:14.859Z,82.32
2022-10-13T07:18:41.886Z,81.94
2022-10-13T07:21:08.779Z,82.26
2022-10-13T07:23:38.104Z,82.09
2022-10-13T07:26:14.355Z,81.97
2022-10-13T07:28:41.436Z,82.23
2022-10-13T07:31:25.426Z,82.27
2022-10-13T07:33:54.579Z,82.15
2022-10-13T07:36:21.140Z,82.34
2022-10-13T07:38:47.774Z,82.08
2022-10-13T07:41:14.928Z,82.27
2022-10-13T07:43:42.125Z,82.16
2022-10-13T07:46:10.359Z,81.99
2022-10-13T07:48:37.044Z,81.90
2022-10-13T07:51:08.648Z,82.12
2022-10-13T07:53:35.908Z,82.06
2022-10-13T07:56:04.470Z,81.84
2022-10-13T07:58:31.180Z,81.36
2022-10-13T08:00:59.660Z,81.42
2022-10-13T08:03:27.487Z,81.12
2022-10-13T08:05:54.745Z,80.73
2022-10-13T08:08:23.805Z,80.50
2022-10-13T08:10:50.558Z,80.36
2022-10-13T08:13:17.223Z,80.03
2022-10-13T08:15:45.204Z,80.11
2022-10-13T08:18:13.579Z,79.76
2022-10-13T08:20:45.250Z,79.94
2022-10-13T08:23:13.400Z,79.80
2022-10-13T08:25:44.071Z,79.67
2022-10-13T08:28:31.139Z,79.61
2022-10-13T08:30:58.072Z,79.43
2022-10-13T08:33:26.541Z,79.06
2022-10-13T08:35:53.819Z,78.57
2022-10-13T08:38:20.468Z,78.01
2022-10-13T08:40:51.658Z,77.49
2022-10-13T08:43:22.538Z,77.20
2022-10-13T08:45:52.060Z,77.06
2022-10-13T08:48:25.016Z,76.47
2022-10-13T08:50:55.762Z,76.61
2022-10-13T08:53:25.300Z,76.29
2022-10-13T08:55:59.789Z,76.23
2022-10-13T08:58:34.825Z,76.31
2022-10-13T09:01:13.791Z,75.97
2022-10-13T09:03:54.402Z,76.18
2022-10-13T09:06:28.647Z,76.51
2022-10-13T09:08:59.903Z,76.60
2022-10-13T09:11:54.336Z,76.67
2022-10-13T09:14:41.575Z,76.57
2022-10-13T09:17:18.748Z,76.70
2022-10-13T09:19:58.815Z,76.95
2022-10-13T09:22:38.718Z,76.65
2022-10-13T09:25:08.392Z,76.68
2022-10-13T09:27:42.825Z,76.98
2022-10-13T09:30:47.510Z,76.88
2022-10-13T09:33:22.057Z,76.25
2022-10-13T09:36:06.680Z,76.07
2022-10-13T09:38:34.706Z,75.42
2022-10-13T09:41:13.678Z,75.07
2022-10-13T09:43:59.849Z,74.65
2022-10-13T09:46:47.884Z,74.53
2022-10-13T09:49:34.903Z,74.51
2022-10-13T09:52:05.190Z,74.39
2022-10-13T09:54:41.118Z,74.58
2022-10-13T09:57:41.909Z,74.92
2022-10-13T10:00:28.550Z,75.61
2022-10-13T10:03:04.935Z,75.63
2022-10-13T10:05:41.868Z,76.03
2022-10-13T10:08:18.457Z,75.90
2022-10-13T10:10:45.514Z,76.70
2022-10-13T10:13:14.279Z,76.91
2022-10-13T10:15:53.838Z,77.27
2022-10-13T10:18:39.200Z,77.50
2022-10-13T10:21:26.768Z,78.04
2022-10-13T10:24:16.003Z,77.92
2022-10-13T10:26:57.770Z,78.29
2022-10-13T10:29:44.413Z,78.47
2022-10-13T10:32:37.922Z,78.63
2022-10-13T10:35:15.973Z,79.28
2022-10-13T10:37:51.448Z,79.03
2022-10-13T10:40:42.727Z,79.25
2022-10-13T10:43:21.559Z,79.03
2022-10-13T10:45:49.779Z,78.74
2022-10-13T10:48:33.671Z,78.72
2022-10-13T10:51:06.204Z,79.13
2022-10-13T10:53:54.291Z,79.02
2022-10-13T10:56:38.994Z,78.90
2022-10-13T10:59:49.850Z,79.05
2022-10-13T11:02:44.350Z,78.98
2022-10-13T11:05:14.923Z,78.94
2022-10-13T11:07:45.721Z,78.96
2022-10-13T11:10:18.335Z,78.96
2022-10-13T11:12:51.258Z,78.99
2022-10-13T11:15:27.559Z,79.04
2022-10-13T11:17:54.555Z,78.71
2022-10-13T11:20:21.052Z,78.83
2022-10-13T11:22:59.581Z,78.93
2022-10-13T11:25:40.042Z,79.56
2022-10-13T11:28:26.571Z,79.05
2022-10-13T11:30:55.577Z,78.94
2022-10-13T11:33:40.816Z,78.98
2022-10-13T11:36:58.766Z,79.05
2022-10-13T11:39:28.469Z,79.04
2022-10-13T11:42:36.844Z,78.88
2022-10-13T11:45:45.681Z,78.82
2022-10-13T11:48:47.750Z,78.92
2022-10-13T11:51:23.589Z,78.76
2022-10-13T11:53:59.831Z,78.86
2022-10-13T11:56:47.474Z,79.14
2022-10-13T11:59:45.505Z,79.10
2022-10-13T12:02:14.526Z,78.69
2022-10-13T12:04:46.796Z,79.08
2022-10-13T12:07:15.712Z,79.04
2022-10-13T12:09:54.788Z,78.84
2022-10-13T12:12:23.092Z,78.77
2022-10-13T12:14:55.628Z,78.79
2022-10-13T12:17:31.632Z,78.69
2022-10-13T12:20:01.346Z,78.33
2022-10-13T12:22:29.141Z,78.60
2022-10-13T12:25:04.827Z,78.57
2022-10-13T12:27:47.833Z,78.47
2022-10-13T12:30:37.114Z,78.83
2022-10-13T12:33:22.899Z,78.75
2022-10-13T12:35:49.835Z,78.70
2022-10-13T12:38:22.212Z,78.57
2022-10-13T12:40:50.553Z,78.60
2022-10-13T12:43:22.313Z,78.70
2022-10-13T12:45:49.396Z,79.02
2022-10-13T12:48:33.687Z,78.82
2022-10-13T12:51:17.311Z,78.89
2022-10-13T12:53:48.083Z,79.11
2022-10-13T12:56:30.941Z,79.40
2022-10-13T12:58:58.811Z,79.20
2022-10-13T13:01:35.604Z,79.25
2022-10-13T13:04:18.314Z,79.81
2022-10-13T13:06:56.795Z,79.50
2022-10-13T13:09:24.868Z,79.54
2022-10-13T13:12:26.682Z,79.88
2022-10-13T13:14:55.378Z,79.72
2022-10-13T13:17:56.741Z,80.03
2022-10-13T13:20:34.823Z,79.99
2022-10-13T13:23:01.606Z,81.09
2022-10-13T13:25:30.735Z,81.27
2022-10-13T13:27:57.400Z,81.26
2022-10-13T13:30:25.117Z,81.40
2022-10-13T13:32:52.514Z,81.67
2022-10-13T13:35:19.207Z,81.86
2022-10-13T13:37:51.694Z,81.99
2022-10-13T13:40:26.644Z,81.88
2022-10-13T13:42:58.438Z,81.82
2022-10-13T13:45:25.771Z,81.92
2022-10-13T13:47:54.892Z,81.50
2022-10-13T13:50:26.584Z,81.34
2022-10-13T13:52:53.247Z,82.86
2022-10-13T13:55:20.191Z,82.16
2022-10-13T13:57:47.202Z,81.69
2022-10-13T14:00:15.905Z,81.12
2022-10-13T14:02:43.741Z,80.45
2022-10-13T14:05:11.742Z,80.86
2022-10-13T14:07:39.337Z,80.81
2022-10-13T14:10:10.055Z,81.68
2022-10-13T14:12:36.974Z,81.81
2022-10-13T14:15:04.534Z,81.52
2022-10-13T14:17:31.419Z,81.74
2022-10-13T14:19:58.088Z,81.74
2022-10-13T14:22:25.476Z,81.80
2022-10-13T14:24:52.695Z,81.87
2022-10-13T14:27:19.328Z,82.37
2022-10-13T14:29:48.507Z,82.33
2022-10-13T14:32:17.597Z,82.31
2022-10-13T14:34:46.434Z,83.32
2022-10-13T14:37:13.496Z,83.38
2022-10-13T14:39:40.963Z,83.30
2022-10-13T14:42:07.656Z,82.86
2022-10-13T14:44:34.297Z,82.79
2022-10-13T14:47:01.106Z,82.73
2022-10-13T14:49:27.795Z,82.37
2022-10-13T14:51:54.569Z,82.72
2022-10-13T14:54:21.234Z,82.78
2022-10-13T14:56:48.026Z,83.02
2022-10-13T14:59:14.721Z,82.67
2022-10-13T15:01:43.259Z,82.85
2022-10-13T15:04:09.940Z,82.81
2022-10-13T15:06:39.407Z,82.98
2022-10-13T15:09:10.708Z,82.91
2022-10-13T15:11:37.468Z,82.73
2022-10-13T15:14:04.634Z,82.78
2022-10-13T15:16:37.094Z,82.90
2022-10-13T15:19:04.415Z,82.96
2022-10-13T15:21:31.051Z,82.89
2022-10-13T15:23:57.740Z,82.72
2022-10-13T15:26:26.612Z,83.16
2022-10-13T15:28:54.181Z,82.93
2022-10-13T15:31:22.332Z,83.03
2022-10-13T15:33:53.283Z,83.08
2022-10-13T15:36:21.763Z,83.36
2022-10-13T15:38:48.790Z,83.18
2022-10-13T15:41:18.705Z,83.51
2022-10-13T15:43:45.642Z,83.57
2022-10-13T15:46:21.217Z,83.70
2022-10-13T15:48:55.278Z,83.60
2022-10-13T15:51:27.313Z,83.60
2022-10-13T15:53:55.283Z,83.66
2022-10-13T15:56:22.421Z,83.74
2022-10-13T15:58:51.304Z,83.74
2022-10-13T16:01:18.094Z,84.05
2022-10-13T16:03:44.838Z,84.00
2022-10-13T16:06:12.696Z,84.00
2022-10-13T16:08:44.336Z,84.18
2022-10-13T16:11:13.766Z,83.96
2022-10-13T16:13:41.648Z,84.43
2022-10-13T16:16:08.889Z,84.58
2022-10-13T16:18:39.378Z,84.46
2022-10-13T16:21:14.417Z,84.60
2022-10-13T16:23:52.873Z,84.37
2022-10-13T16:26:19.522Z,84.54
2022-10-13T16:28:46.874Z,84.44
2022-10-13T16:31:17.453Z,84.87
2022-10-13T16:33:46.846Z,85.05
2022-10-13T16:36:18.405Z,85.00
2022-10-13T16:38:47.916Z,85.30
2022-10-13T16:41:17.439Z,85.32
2022-10-13T16:43:48.311Z,85.38
2022-10-13T16:46:19.550Z,85.63
2022-10-13T16:48:47.346Z,85.35
2022-10-13T16:51:20.809Z,85.61
2022-10-13T16:54:01.312Z,85.57
2022-10-13T16:56:31.179Z,85.84
2022-10-13T16:59:03.153Z,85.79
2022-10-13T17:01:31.145Z,85.92
2022-10-13T17:03:58.993Z,85.84
2022-10-13T17:06:27.791Z,85.99
2022-10-13T17:08:55.424Z,85.92
2022-10-13T17:11:25.467Z,85.92
2022-10-13T17:13:52.648Z,85.84
2022-10-13T17:16:22.446Z,86.07
2022-10-13T17:18:49.076Z,86.00
2022-10-13T17:21:17.935Z,86.15
2022-10-13T17:23:48.610Z,85.90
2022-10-13T17:26:17.256Z,86.21
2022-10-13T17:28:44.717Z,86.33
2022-10-13T17:31:17.743Z,86.24
2022-10-13T17:33:45.289Z,86.01
2022-10-13T17:36:19.590Z,86.26
2022-10-13T17:38:47.410Z,86.46
2022-10-13T17:41:16.544Z,86.43
2022-10-13T17:43:43.393Z,86.46
2022-10-13T17:49:03.113Z,86.62
2022-10-13T17:51:31.978Z,86.51
2022-10-13T17:54:00.816Z,86.76
2022-10-13T17:56:28.872Z,87.09
2022-10-13T17:58:58.858Z,87.00
2022-10-13T18:01:31.907Z,87.17
2022-10-13T18:04:08.541Z,87.28
2022-10-13T18:06:40.504Z,87.23
2022-10-13T18:09:11.419Z,87.28
2022-10-13T18:11:44.432Z,87.13
2022-10-13T18:14:15.612Z,87.33
2022-10-13T18:16:49.242Z,87.55
2022-10-13T18:19:15.792Z,87.65
2022-10-13T18:21:42.863Z,87.52
2022-10-13T18:24:09.912Z,87.58
2022-10-13T18:26:39.308Z,87.78
2022-10-13T18:29:07.633Z,87.59
2022-10-13T18:31:41.143Z,88.04
2022-10-13T18:34:11.988Z,87.80
2022-10-13T18:36:43.922Z,87.80
2022-10-13T18:39:13.891Z,88.06
2022-10-13T18:41:41.401Z,88.05
2022-10-13T18:44:09.200Z,87.96
2022-10-13T18:46:37.740Z,88.10
2022-10-13T18:49:05.973Z,88.07
2022-10-13T18:51:36.499Z,87.95
2022-10-13T18:54:05.891Z,88.07
2022-10-13T18:56:34.289Z,88.21
2022-10-13T18:59:02.096Z,88.16
2022-10-13T19:01:31.407Z,88.16
2022-10-13T19:03:58.491Z,88.16
2022-10-13T19:06:27.214Z,88.46
2022-10-13T19:09:00.785Z,88.19
2022-10-13T19:11:29.149Z,88.54
2022-10-13T19:13:56.322Z,88.60
2022-10-13T19:16:25.252Z,88.61
2022-10-13T19:18:52.477Z,88.79
2022-10-13T19:21:23.854Z,88.64
2022-10-13T19:23:51.003Z,88.72
2022-10-13T19:26:20.973Z,88.78
2022-10-13T19:28:52.968Z,88.52
2022-10-13T19:31:23.946Z,88.73
2022-10-13T19:33:52.585Z,88.62
2022-10-13T19:36:35.369Z,88.69
2022-10-13T19:39:06.690Z,88.70
2022-10-13T19:41:36.272Z,88.50
2022-10-13T19:44:03.275Z,88.58
2022-10-13T19:46:33.047Z,88.46
2022-10-13T19:49:00.241Z,88.69
2022-10-13T19:51:26.855Z,88.76
2022-10-13T19:53:53.537Z,88.60
2022-10-13T19:56:30.493Z,88.81
2022-10-13T19:58:58.048Z,88.88
2022-10-13T20:01:27.257Z,88.65
2022-10-13T20:03:56.401Z,88.77
2022-10-13T20:06:25.508Z,88.58
2022-10-13T20:08:52.110Z,88.47
2022-10-13T20:11:23.845Z,88.69
2022-10-13T20:13:52.413Z,88.44
2022-10-13T20:16:21.867Z,88.50
2022-10-13T20:18:57.250Z,88.67
2022-10-13T20:21:25.308Z,88.56
2022-10-13T20:23:52.349Z,88.84
2022-10-13T20:26:19.919Z,88.91
2022-10-13T20:28:48.798Z,89.05
2022-10-13T20:31:18.281Z,89.28
2022-10-13T20:33:45.004Z,89.62
2022-10-13T20:36:14.207Z,89.56
2022-10-13T20:38:41.393Z,89.68
2022-10-13T20:41:21.697Z,89.53
2022-10-13T20:43:49.284Z,89.45
2022-10-13T20:46:17.501Z,89.37
2022-10-13T20:49:09.867Z,89.30
2022-10-13T20:51:31.232Z,89.16
2022-10-13T20:53:58.134Z,89.10
2022-10-13T20:56:26.965Z,89.17
2022-10-13T20:58:54.509Z,89.11
2022-10-13T21:01:22.917Z,88.90
2022-10-13T21:03:53.863Z,88.93
2022-10-13T21:06:21.898Z,88.97
2022-10-13T21:08:51.317Z,88.99
2022-10-13T21:11:22.587Z,89.06
2022-10-13T21:13:50.618Z,88.97
2022-10-13T21:16:29.027Z,89.11
2022-10-13T21:18:57.420Z,89.17
2022-10-13T21:21:33.128Z,89.14
2022-10-13T21:24:05.395Z,89.15
2022-10-13T21:26:33.285Z,89.34
2022-10-13T21:29:01.235Z,89.37
2022-10-13T21:31:31.080Z,89.67
2022-10-13T21:33:57.899Z,89.45
2022-10-13T21:36:30.401Z,89.36
2022-10-13T21:39:04.456Z,89.41
2022-10-13T21:41:33.470Z,89.42
2022-10-13T21:44:00.101Z,89.68
2022-10-13T21:46:31.830Z,89.57
2022-10-13T21:49:01.430Z,89.45
2022-10-13T21:51:31.015Z,89.78
2022-10-13T21:54:00.329Z,90.08
2022-10-13T21:56:27.982Z,90.17
2022-10-13T21:58:56.101Z,90.10
2022-10-13T22:01:26.376Z,90.45
2022-10-13T22:04:00.094Z,90.37
2022-10-13T22:06:27.886Z,90.41
2022-10-13T22:08:56.497Z,90.45
2022-10-13T22:11:25.773Z,90.34
2022-10-13T22:13:58.263Z,90.16
2022-10-13T22:16:31.677Z,90.53
2022-10-13T22:18:58.676Z,90.36
2022-10-13T22:21:28.967Z,90.57
2022-10-13T22:24:05.211Z,90.25
2022-10-13T22:26:33.925Z,90.39
2022-10-13T22:29:08.116Z,90.33
2022-10-13T22:31:36.122Z,90.35
2022-10-13T22:34:03.709Z,90.33
2022-10-13T22:36:33.276Z,90.53
2022-10-13T22:39:02.792Z,90.45
2022-10-13T22:41:33.452Z,90.28
2022-10-13T22:44:03.228Z,90.83
2022-10-13T22:46:35.450Z,90.88
2022-10-13T22:49:06.473Z,90.80
2022-10-13T22:51:35.730Z,90.90
2022-10-13T22:54:02.755Z,90.78
2022-10-13T22:56:31.960Z,90.83
2022-10-13T22:59:04.903Z,90.84
2022-10-13T23:01:31.869Z,90.49
2022-10-13T23:03:59.405Z,90.86
2022-10-13T23:06:28.704Z,90.69
2022-10-13T23:08:55.756Z,90.82
2022-10-13T23:11:22.792Z,90.82
2022-10-13T23:13:49.773Z,90.88
2022-10-13T23:16:20.419Z,90.86
2022-10-13T23:18:47.446Z,90.95
2022-10-13T23:21:17.660Z,90.96
2022-10-13T23:23:45.332Z,91.02
2022-10-13T23:26:16.777Z,90.92
2022-10-13T23:28:46.031Z,91.06
2022-10-13T23:31:16.281Z,90.99
2022-10-13T23:33:45.872Z,91.05
2022-10-13T23:36:20.953Z,91.27
2022-10-13T23:38:48.209Z,91.04
2022-10-13T23:41:17.698Z,91.00
2022-10-13T23:43:44.560Z,90.98
2022-10-13T23:46:13.883Z,90.87
2022-10-13T23:48:43.521Z,90.80
2022-10-13T23:51:16.654Z,91.15
2022-10-13T23:53:43.493Z,91.13
2022-10-13T23:56:11.676Z,91.03
2022-10-13T23:58:42.632Z,91.10
